sensor_id;sensor_type;location;lat;lon;timestamp;P1;durP1;ratioP1;P2;durP2;ratioP2
19944;SDS011;10134;50.952;6.930;2022-12-17T00:00:48;59.93;;;23.27;;
19944;SDS011;10134;50.952;6.930;2022-12-17T00:03:34;56.67;;;22.53;;
19944;SDS011;10134;50.952;6.930;2022-12-17T00:06:22;57.70;;;20.77;;
19944;SDS011;10134;50.952;6.930;2022-12-17T00:09:08;54.20;;;21.43;;
19944;SDS011;10134;50.952;6.930;2022-12-17T00:11:54;60.80;;;21.90;;
19944;SDS011;10134;50.952;6.930;2022-12-17T00:14:40;63.57;;;23.43;;
19944;SDS011;10134;50.952;6.930;2022-12-17T00:17:25;65.77;;;23.53;;
19944;SDS011;10134;50.952;6.930;2022-12-17T00:20:11;64.13;;;23.60;;
19944;SDS011;10134;50.952;6.930;2022-12-17T00:22:58;53.10;;;24.10;;
19944;SDS011;10134;50.952;6.930;2022-12-17T00:25:50;60.60;;;23.23;;
19944;SDS011;10134;50.952;6.930;2022-12-17T00:28:37;63.37;;;22.33;;
19944;SDS011;10134;50.952;6.930;2022-12-17T00:31:29;62.50;;;22.43;;
19944;SDS011;10134;50.952;6.930;2022-12-17T00:34:14;60.47;;;22.97;;
19944;SDS011;10134;50.952;6.930;2022-12-17T00:37:00;63.50;;;24.47;;
19944;SDS011;10134;50.952;6.930;2022-12-17T00:39:46;63.40;;;24.07;;
19944;SDS011;10134;50.952;6.930;2022-12-17T00:42:32;59.90;;;23.93;;
19944;SDS011;10134;50.952;6.930;2022-12-17T00:45:22;63.23;;;22.67;;
19944;SDS011;10134;50.952;6.930;2022-12-17T00:48:07;59.53;;;22.13;;
19944;SDS011;10134;50.952;6.930;2022-12-17T00:50:53;57.37;;;21.87;;
19944;SDS011;10134;50.952;6.930;2022-12-17T00:53:39;60.97;;;23.33;;
19944;SDS011;10134;50.952;6.930;2022-12-17T00:56:25;66.97;;;21.97;;
19944;SDS011;10134;50.952;6.930;2022-12-17T00:59:11;59.63;;;23.33;;
19944;SDS011;10134;50.952;6.930;2022-12-17T01:01:58;51.87;;;21.70;;
19944;SDS011;10134;50.952;6.930;2022-12-17T01:04:45;64.90;;;23.60;;
19944;SDS011;10134;50.952;6.930;2022-12-17T01:07:30;66.57;;;22.80;;
19944;SDS011;10134;50.952;6.930;2022-12-17T01:10:17;65.67;;;22.63;;
19944;SDS011;10134;50.952;6.930;2022-12-17T01:13:03;64.20;;;23.30;;
19944;SDS011;10134;50.952;6.930;2022-12-17T01:15:50;55.13;;;21.23;;
19944;SDS011;10134;50.952;6.930;2022-12-17T01:18:36;63.70;;;21.47;;
19944;SDS011;10134;50.952;6.930;2022-12-17T01:21:22;64.90;;;22.50;;
19944;SDS011;10134;50.952;6.930;2022-12-17T01:24:08;68.00;;;22.30;;
19944;SDS011;10134;50.952;6.930;2022-12-17T01:26:54;57.83;;;21.80;;
19944;SDS011;10134;50.952;6.930;2022-12-17T01:29:39;60.23;;;22.07;;
19944;SDS011;10134;50.952;6.930;2022-12-17T01:32:25;63.97;;;23.23;;
19944;SDS011;10134;50.952;6.930;2022-12-17T01:35:11;69.03;;;23.60;;
19944;SDS011;10134;50.952;6.930;2022-12-17T01:37:57;59.80;;;20.53;;
19944;SDS011;10134;50.952;6.930;2022-12-17T01:40:43;55.43;;;20.33;;
19944;SDS011;10134;50.952;6.930;2022-12-17T01:43:30;64.13;;;22.40;;
19944;SDS011;10134;50.952;6.930;2022-12-17T01:46:19;53.43;;;20.17;;
19944;SDS011;10134;50.952;6.930;2022-12-17T01:49:06;53.47;;;20.00;;
19944;SDS011;10134;50.952;6.930;2022-12-17T01:51:55;60.30;;;22.13;;
19944;SDS011;10134;50.952;6.930;2022-12-17T01:54:42;49.37;;;20.13;;
19944;SDS011;10134;50.952;6.930;2022-12-17T01:57:29;60.77;;;20.53;;
19944;SDS011;10134;50.952;6.930;2022-12-17T02:00:15;58.77;;;18.63;;
19944;SDS011;10134;50.952;6.930;2022-12-17T02:03:03;53.17;;;20.33;;
19944;SDS011;10134;50.952;6.930;2022-12-17T02:12:06;44.37;;;18.27;;
19944;SDS011;10134;50.952;6.930;2022-12-17T02:15:12;47.53;;;17.90;;
19944;SDS011;10134;50.952;6.930;2022-12-17T02:18:17;49.63;;;19.33;;
19944;SDS011;10134;50.952;6.930;2022-12-17T02:21:07;38.50;;;16.83;;
19944;SDS011;10134;50.952;6.930;2022-12-17T02:29:40;49.87;;;18.60;;
19944;SDS011;10134;50.952;6.930;2022-12-17T02:32:48;54.30;;;19.40;;
19944;SDS011;10134;50.952;6.930;2022-12-17T02:35:44;52.70;;;18.40;;
19944;SDS011;10134;50.952;6.930;2022-12-17T02:38:32;56.73;;;18.93;;
19944;SDS011;10134;50.952;6.930;2022-12-17T02:44:17;52.60;;;20.10;;
19944;SDS011;10134;50.952;6.930;2022-12-17T02:47:06;42.97;;;17.67;;
19944;SDS011;10134;50.952;6.930;2022-12-17T02:49:54;48.03;;;17.80;;
19944;SDS011;10134;50.952;6.930;2022-12-17T02:52:47;47.03;;;18.53;;
19944;SDS011;10134;50.952;6.930;2022-12-17T02:55:34;50.00;;;18.97;;
19944;SDS011;10134;50.952;6.930;2022-12-17T02:58:20;43.93;;;16.17;;
19944;SDS011;10134;50.952;6.930;2022-12-17T03:01:06;47.60;;;17.70;;
19944;SDS011;10134;50.952;6.930;2022-12-17T03:03:53;49.80;;;19.03;;
19944;SDS011;10134;50.952;6.930;2022-12-17T03:06:40;52.07;;;20.33;;
19944;SDS011;10134;50.952;6.930;2022-12-17T03:09:26;46.20;;;19.17;;
19944;SDS011;10134;50.952;6.930;2022-12-17T03:12:12;44.90;;;16.13;;
19944;SDS011;10134;50.952;6.930;2022-12-17T03:14:58;45.73;;;17.43;;
19944;SDS011;10134;50.952;6.930;2022-12-17T03:17:43;51.80;;;17.43;;
19944;SDS011;10134;50.952;6.930;2022-12-17T03:20:29;53.23;;;17.50;;
19944;SDS011;10134;50.952;6.930;2022-12-17T03:23:15;43.90;;;17.33;;
19944;SDS011;10134;50.952;6.930;2022-12-17T03:26:02;44.53;;;16.43;;
19944;SDS011;10134;50.952;6.930;2022-12-17T03:28:48;44.97;;;16.53;;
19944;SDS011;10134;50.952;6.930;2022-12-17T03:31:33;53.13;;;19.73;;
19944;SDS011;10134;50.952;6.930;2022-12-17T03:34:19;45.20;;;17.43;;
19944;SDS011;10134;50.952;6.930;2022-12-17T03:37:05;40.03;;;14.70;;
19944;SDS011;10134;50.952;6.930;2022-12-17T03:39:51;44.97;;;17.33;;
19944;SDS011;10134;50.952;6.930;2022-12-17T03:42:37;48.50;;;18.50;;
19944;SDS011;10134;50.952;6.930;2022-12-17T03:45:23;45.50;;;17.40;;
19944;SDS011;10134;50.952;6.930;2022-12-17T03:48:13;43.73;;;18.67;;
19944;SDS011;10134;50.952;6.930;2022-12-17T03:50:59;38.63;;;17.20;;
19944;SDS011;10134;50.952;6.930;2022-12-17T03:53:46;42.20;;;18.37;;
19944;SDS011;10134;50.952;6.930;2022-12-17T03:56:32;56.03;;;18.57;;
19944;SDS011;10134;50.952;6.930;2022-12-17T03:59:18;40.47;;;17.20;;
19944;SDS011;10134;50.952;6.930;2022-12-17T04:02:04;50.03;;;16.83;;
19944;SDS011;10134;50.952;6.930;2022-12-17T04:04:50;49.70;;;17.70;;
19944;SDS011;10134;50.952;6.930;2022-12-17T04:07:42;50.20;;;16.83;;
19944;SDS011;10134;50.952;6.930;2022-12-17T04:10:28;41.07;;;18.30;;
19944;SDS011;10134;50.952;6.930;2022-12-17T04:13:14;43.57;;;17.70;;
19944;SDS011;10134;50.952;6.930;2022-12-17T04:16:06;45.63;;;18.37;;
19944;SDS011;10134;50.952;6.930;2022-12-17T04:18:53;42.80;;;17.00;;
19944;SDS011;10134;50.952;6.930;2022-12-17T04:21:39;51.70;;;17.57;;
19944;SDS011;10134;50.952;6.930;2022-12-17T04:24:44;47.33;;;16.17;;
19944;SDS011;10134;50.952;6.930;2022-12-17T04:27:30;42.90;;;17.20;;
19944;SDS011;10134;50.952;6.930;2022-12-17T04:30:16;40.43;;;16.77;;
19944;SDS011;10134;50.952;6.930;2022-12-17T04:33:02;50.90;;;19.03;;
19944;SDS011;10134;50.952;6.930;2022-12-17T04:35:47;43.03;;;16.67;;
19944;SDS011;10134;50.952;6.930;2022-12-17T04:38:33;49.80;;;18.33;;
19944;SDS011;10134;50.952;6.930;2022-12-17T04:41:19;43.40;;;16.70;;
19944;SDS011;10134;50.952;6.930;2022-12-17T04:44:05;44.40;;;16.93;;
19944;SDS011;10134;50.952;6.930;2022-12-17T04:46:50;42.93;;;16.70;;
19944;SDS011;10134;50.952;6.930;2022-12-17T04:49:36;50.93;;;17.20;;
19944;SDS011;10134;50.952;6.930;2022-12-17T04:52:22;40.53;;;16.23;;
19944;SDS011;10134;50.952;6.930;2022-12-17T04:55:08;43.57;;;16.53;;
19944;SDS011;10134;50.952;6.930;2022-12-17T04:57:54;40.13;;;16.77;;
19944;SDS011;10134;50.952;6.930;2022-12-17T05:00:45;42.83;;;17.50;;
19944;SDS011;10134;50.952;6.930;2022-12-17T05:03:35;39.47;;;14.63;;
19944;SDS011;10134;50.952;6.930;2022-12-17T05:06:21;44.40;;;17.13;;
19944;SDS011;10134;50.952;6.930;2022-12-17T05:09:07;37.37;;;15.13;;
19944;SDS011;10134;50.952;6.930;2022-12-17T05:11:53;43.50;;;15.23;;
19944;SDS011;10134;50.952;6.930;2022-12-17T05:14:42;43.33;;;16.33;;
19944;SDS011;10134;50.952;6.930;2022-12-17T05:17:28;46.30;;;15.23;;
19944;SDS011;10134;50.952;6.930;2022-12-17T05:20:17;45.47;;;17.87;;
19944;SDS011;10134;50.952;6.930;2022-12-17T05:23:04;44.60;;;16.43;;
19944;SDS011;10134;50.952;6.930;2022-12-17T05:28:50;42.47;;;14.60;;
19944;SDS011;10134;50.952;6.930;2022-12-17T05:31:41;43.87;;;16.20;;
19944;SDS011;10134;50.952;6.930;2022-12-17T05:34:27;43.70;;;15.27;;
19944;SDS011;10134;50.952;6.930;2022-12-17T05:37:13;43.87;;;15.40;;
19944;SDS011;10134;50.952;6.930;2022-12-17T05:39:59;37.83;;;15.23;;
19944;SDS011;10134;50.952;6.930;2022-12-17T05:42:58;36.73;;;14.17;;
19944;SDS011;10134;50.952;6.930;2022-12-17T05:45:45;36.77;;;15.77;;
19944;SDS011;10134;50.952;6.930;2022-12-17T05:48:32;43.07;;;16.00;;
19944;SDS011;10134;50.952;6.930;2022-12-17T05:51:22;49.47;;;17.47;;
19944;SDS011;10134;50.952;6.930;2022-12-17T05:54:09;35.93;;;15.27;;
19944;SDS011;10134;50.952;6.930;2022-12-17T05:56:55;44.87;;;17.67;;
19944;SDS011;10134;50.952;6.930;2022-12-17T05:59:41;38.27;;;16.43;;
19944;SDS011;10134;50.952;6.930;2022-12-17T06:02:26;44.63;;;18.93;;
19944;SDS011;10134;50.952;6.930;2022-12-17T06:05:12;46.80;;;16.50;;
19944;SDS011;10134;50.952;6.930;2022-12-17T06:08:05;37.07;;;16.37;;
19944;SDS011;10134;50.952;6.930;2022-12-17T06:10:52;37.60;;;16.03;;
19944;SDS011;10134;50.952;6.930;2022-12-17T06:13:39;38.23;;;17.60;;
19944;SDS011;10134;50.952;6.930;2022-12-17T06:16:24;38.93;;;16.13;;
19944;SDS011;10134;50.952;6.930;2022-12-17T06:19:10;32.30;;;14.67;;
19944;SDS011;10134;50.952;6.930;2022-12-17T06:21:56;45.57;;;17.30;;
19944;SDS011;10134;50.952;6.930;2022-12-17T06:24:42;40.67;;;17.10;;
19944;SDS011;10134;50.952;6.930;2022-12-17T06:27:28;45.50;;;17.03;;
19944;SDS011;10134;50.952;6.930;2022-12-17T06:30:13;42.47;;;17.57;;
19944;SDS011;10134;50.952;6.930;2022-12-17T06:33:16;43.17;;;16.80;;
19944;SDS011;10134;50.952;6.930;2022-12-17T06:36:02;46.67;;;18.17;;
19944;SDS011;10134;50.952;6.930;2022-12-17T06:38:49;40.57;;;16.20;;
19944;SDS011;10134;50.952;6.930;2022-12-17T06:41:35;40.33;;;16.73;;
19944;SDS011;10134;50.952;6.930;2022-12-17T06:44:29;45.07;;;18.20;;
19944;SDS011;10134;50.952;6.930;2022-12-17T06:47:16;43.60;;;17.13;;
19944;SDS011;10134;50.952;6.930;2022-12-17T06:50:02;39.00;;;17.63;;
19944;SDS011;10134;50.952;6.930;2022-12-17T06:52:59;41.47;;;18.13;;
19944;SDS011;10134;50.952;6.930;2022-12-17T06:55:49;37.93;;;16.87;;
19944;SDS011;10134;50.952;6.930;2022-12-17T06:58:35;42.77;;;18.13;;
19944;SDS011;10134;50.952;6.930;2022-12-17T07:01:21;48.30;;;19.13;;
19944;SDS011;10134;50.952;6.930;2022-12-17T07:04:07;48.37;;;18.90;;
19944;SDS011;10134;50.952;6.930;2022-12-17T07:06:53;38.77;;;16.30;;
19944;SDS011;10134;50.952;6.930;2022-12-17T07:09:39;44.67;;;18.67;;
19944;SDS011;10134;50.952;6.930;2022-12-17T07:12:25;42.73;;;18.43;;
19944;SDS011;10134;50.952;6.930;2022-12-17T07:15:10;39.57;;;17.33;;
19944;SDS011;10134;50.952;6.930;2022-12-17T07:18:00;46.57;;;18.40;;
19944;SDS011;10134;50.952;6.930;2022-12-17T07:20:47;43.13;;;16.90;;
19944;SDS011;10134;50.952;6.930;2022-12-17T07:23:36;40.43;;;17.03;;
19944;SDS011;10134;50.952;6.930;2022-12-17T07:26:22;41.30;;;16.67;;
19944;SDS011;10134;50.952;6.930;2022-12-17T07:29:08;39.93;;;17.13;;
19944;SDS011;10134;50.952;6.930;2022-12-17T07:31:54;41.57;;;15.57;;
19944;SDS011;10134;50.952;6.930;2022-12-17T07:34:39;35.77;;;15.20;;
19944;SDS011;10134;50.952;6.930;2022-12-17T07:37:26;41.70;;;16.63;;
19944;SDS011;10134;50.952;6.930;2022-12-17T07:40:11;41.87;;;15.30;;
19944;SDS011;10134;50.952;6.930;2022-12-17T07:42:57;33.83;;;15.20;;
19944;SDS011;10134;50.952;6.930;2022-12-17T07:45:43;39.83;;;14.87;;
19944;SDS011;10134;50.952;6.930;2022-12-17T07:48:28;34.83;;;16.37;;
19944;SDS011;10134;50.952;6.930;2022-12-17T07:51:14;38.67;;;16.57;;
19944;SDS011;10134;50.952;6.930;2022-12-17T07:54:00;31.83;;;14.60;;
19944;SDS011;10134;50.952;6.930;2022-12-17T07:56:45;37.03;;;15.27;;
19944;SDS011;10134;50.952;6.930;2022-12-17T07:59:31;38.00;;;15.10;;
19944;SDS011;10134;50.952;6.930;2022-12-17T08:02:17;37.57;;;15.27;;
19944;SDS011;10134;50.952;6.930;2022-12-17T08:05:03;37.13;;;15.60;;
19944;SDS011;10134;50.952;6.930;2022-12-17T08:07:49;34.30;;;15.90;;
19944;SDS011;10134;50.952;6.930;2022-12-17T08:10:35;34.57;;;14.37;;
19944;SDS011;10134;50.952;6.930;2022-12-17T08:13:21;35.50;;;15.70;;
19944;SDS011;10134;50.952;6.930;2022-12-17T08:16:06;29.57;;;13.50;;
19944;SDS011;10134;50.952;6.930;2022-12-17T08:18:52;36.13;;;14.80;;
19944;SDS011;10134;50.952;6.930;2022-12-17T08:21:38;26.57;;;12.27;;
19944;SDS011;10134;50.952;6.930;2022-12-17T08:24:24;36.23;;;14.73;;
19944;SDS011;10134;50.952;6.930;2022-12-17T08:27:10;33.07;;;14.67;;
19944;SDS011;10134;50.952;6.930;2022-12-17T08:29:55;37.23;;;15.27;;
19944;SDS011;10134;50.952;6.930;2022-12-17T08:32:41;30.50;;;14.33;;
19944;SDS011;10134;50.952;6.930;2022-12-17T08:35:28;31.10;;;15.23;;
19944;SDS011;10134;50.952;6.930;2022-12-17T08:38:14;31.23;;;14.23;;
19944;SDS011;10134;50.952;6.930;2022-12-17T08:41:00;34.17;;;14.63;;
19944;SDS011;10134;50.952;6.930;2022-12-17T08:43:46;35.57;;;14.27;;
19944;SDS011;10134;50.952;6.930;2022-12-17T08:46:35;30.80;;;13.87;;
19944;SDS011;10134;50.952;6.930;2022-12-17T08:49:21;31.00;;;13.43;;
19944;SDS011;10134;50.952;6.930;2022-12-17T08:52:06;35.70;;;14.43;;
19944;SDS011;10134;50.952;6.930;2022-12-17T08:54:52;31.70;;;15.20;;
19944;SDS011;10134;50.952;6.930;2022-12-17T08:57:37;35.70;;;15.07;;
19944;SDS011;10134;50.952;6.930;2022-12-17T09:00:23;33.60;;;14.10;;
19944;SDS011;10134;50.952;6.930;2022-12-17T09:03:23;26.13;;;13.50;;
19944;SDS011;10134;50.952;6.930;2022-12-17T09:06:09;30.17;;;13.93;;
19944;SDS011;10134;50.952;6.930;2022-12-17T09:09:01;29.97;;;13.90;;
19944;SDS011;10134;50.952;6.930;2022-12-17T09:11:47;25.23;;;12.87;;
19944;SDS011;10134;50.952;6.930;2022-12-17T09:14:33;27.20;;;12.27;;
19944;SDS011;10134;50.952;6.930;2022-12-17T09:17:19;29.63;;;13.37;;
19944;SDS011;10134;50.952;6.930;2022-12-17T09:20:05;29.37;;;13.97;;
19944;SDS011;10134;50.952;6.930;2022-12-17T09:22:55;28.70;;;13.70;;
19944;SDS011;10134;50.952;6.930;2022-12-17T09:25:42;29.97;;;12.27;;
19944;SDS011;10134;50.952;6.930;2022-12-17T09:28:28;25.23;;;12.07;;
19944;SDS011;10134;50.952;6.930;2022-12-17T09:31:15;25.50;;;12.93;;
19944;SDS011;10134;50.952;6.930;2022-12-17T09:34:03;30.20;;;11.87;;
19944;SDS011;10134;50.952;6.930;2022-12-17T09:36:49;25.50;;;12.33;;
19944;SDS011;10134;50.952;6.930;2022-12-17T09:39:35;21.60;;;11.93;;
19944;SDS011;10134;50.952;6.930;2022-12-17T09:42:44;23.00;;;11.37;;
19944;SDS011;10134;50.952;6.930;2022-12-17T09:45:39;30.73;;;11.90;;
19944;SDS011;10134;50.952;6.930;2022-12-17T09:48:30;27.23;;;12.83;;
19944;SDS011;10134;50.952;6.930;2022-12-17T09:51:40;25.10;;;11.30;;
19944;SDS011;10134;50.952;6.930;2022-12-17T09:54:28;26.13;;;12.83;;
19944;SDS011;10134;50.952;6.930;2022-12-17T09:57:28;20.57;;;11.13;;
19944;SDS011;10134;50.952;6.930;2022-12-17T10:00:26;23.20;;;11.20;;
19944;SDS011;10134;50.952;6.930;2022-12-17T10:03:14;23.63;;;11.70;;
19944;SDS011;10134;50.952;6.930;2022-12-17T10:06:04;23.90;;;11.00;;
19944;SDS011;10134;50.952;6.930;2022-12-17T10:09:01;19.87;;;11.23;;
19944;SDS011;10134;50.952;6.930;2022-12-17T10:11:54;19.37;;;10.53;;
19944;SDS011;10134;50.952;6.930;2022-12-17T10:14:41;20.93;;;11.40;;
19944;SDS011;10134;50.952;6.930;2022-12-17T10:17:26;24.93;;;11.97;;
19944;SDS011;10134;50.952;6.930;2022-12-17T10:23:20;21.40;;;10.90;;
19944;SDS011;10134;50.952;6.930;2022-12-17T10:26:13;28.17;;;12.50;;
19944;SDS011;10134;50.952;6.930;2022-12-17T10:29:13;20.03;;;10.97;;
19944;SDS011;10134;50.952;6.930;2022-12-17T10:35:01;26.80;;;12.80;;
19944;SDS011;10134;50.952;6.930;2022-12-17T10:38:15;22.43;;;11.87;;
19944;SDS011;10134;50.952;6.930;2022-12-17T10:41:22;22.33;;;12.17;;
19944;SDS011;10134;50.952;6.930;2022-12-17T10:47:32;19.63;;;10.77;;
19944;SDS011;10134;50.952;6.930;2022-12-17T10:50:21;20.97;;;10.93;;
19944;SDS011;10134;50.952;6.930;2022-12-17T10:53:18;24.20;;;12.47;;
19944;SDS011;10134;50.952;6.930;2022-12-17T10:56:15;23.83;;;11.87;;
19944;SDS011;10134;50.952;6.930;2022-12-17T10:59:13;22.90;;;12.77;;
19944;SDS011;10134;50.952;6.930;2022-12-17T11:02:19;25.10;;;11.40;;
19944;SDS011;10134;50.952;6.930;2022-12-17T11:05:17;22.10;;;12.13;;
19944;SDS011;10134;50.952;6.930;2022-12-17T11:08:13;22.90;;;11.10;;
19944;SDS011;10134;50.952;6.930;2022-12-17T11:11:02;23.17;;;11.63;;
19944;SDS011;10134;50.952;6.930;2022-12-17T11:13:50;21.43;;;11.83;;
19944;SDS011;10134;50.952;6.930;2022-12-17T11:16:39;26.23;;;12.13;;
19944;SDS011;10134;50.952;6.930;2022-12-17T11:25:55;24.70;;;11.90;;
19944;SDS011;10134;50.952;6.930;2022-12-17T11:29:08;21.13;;;11.33;;
19944;SDS011;10134;50.952;6.930;2022-12-17T11:34:47;20.13;;;11.10;;
19944;SDS011;10134;50.952;6.930;2022-12-17T11:48:10;25.50;;;12.37;;
19944;SDS011;10134;50.952;6.930;2022-12-17T11:54:51;21.80;;;11.33;;
19944;SDS011;10134;50.952;6.930;2022-12-17T11:57:53;29.80;;;12.23;;
19944;SDS011;10134;50.952;6.930;2022-12-17T12:04:15;30.53;;;13.87;;
19944;SDS011;10134;50.952;6.930;2022-12-17T12:07:11;27.73;;;15.07;;
19944;SDS011;10134;50.952;6.930;2022-12-17T12:10:08;26.17;;;14.33;;
19944;SDS011;10134;50.952;6.930;2022-12-17T12:13:43;25.60;;;13.00;;
19944;SDS011;10134;50.952;6.930;2022-12-17T12:16:49;29.17;;;12.90;;
19944;SDS011;10134;50.952;6.930;2022-12-17T12:20:01;29.03;;;13.30;;
19944;SDS011;10134;50.952;6.930;2022-12-17T12:25:58;26.63;;;13.40;;
19944;SDS011;10134;50.952;6.930;2022-12-17T12:28:56;29.10;;;13.20;;
19944;SDS011;10134;50.952;6.930;2022-12-17T12:34:41;24.73;;;12.93;;
19944;SDS011;10134;50.952;6.930;2022-12-17T12:37:29;24.77;;;13.03;;
19944;SDS011;10134;50.952;6.930;2022-12-17T12:43:17;26.23;;;13.53;;
19944;SDS011;10134;50.952;6.930;2022-12-17T12:46:15;22.47;;;13.20;;
19944;SDS011;10134;50.952;6.930;2022-12-17T12:52:32;26.57;;;13.23;;
19944;SDS011;10134;50.952;6.930;2022-12-17T12:55:18;24.47;;;12.20;;
19944;SDS011;10134;50.952;6.930;2022-12-17T12:58:05;27.27;;;13.90;;
19944;SDS011;10134;50.952;6.930;2022-12-17T13:01:10;24.70;;;13.17;;
19944;SDS011;10134;50.952;6.930;2022-12-17T13:03:57;29.50;;;14.53;;
19944;SDS011;10134;50.952;6.930;2022-12-17T13:06:49;28.23;;;14.07;;
19944;SDS011;10134;50.952;6.930;2022-12-17T13:09:28;27.83;;;13.67;;
19944;SDS011;10134;50.952;6.930;2022-12-17T13:14:31;25.33;;;13.03;;
19944;SDS011;10134;50.952;6.930;2022-12-17T13:24:50;24.77;;;13.53;;
19944;SDS011;10134;50.952;6.930;2022-12-17T13:32:49;21.27;;;12.63;;
19944;SDS011;10134;50.952;6.930;2022-12-17T13:38:42;25.23;;;12.73;;
19944;SDS011;10134;50.952;6.930;2022-12-17T13:41:30;25.37;;;12.60;;
19944;SDS011;10134;50.952;6.930;2022-12-17T13:44:14;24.93;;;13.27;;
19944;SDS011;10134;50.952;6.930;2022-12-17T13:46:44;28.80;;;12.60;;
19944;SDS011;10134;50.952;6.930;2022-12-17T13:49:20;26.10;;;13.47;;
19944;SDS011;10134;50.952;6.930;2022-12-17T13:52:05;23.40;;;12.53;;
19944;SDS011;10134;50.952;6.930;2022-12-17T13:54:43;24.47;;;11.87;;
19944;SDS011;10134;50.952;6.930;2022-12-17T13:57:18;23.07;;;12.33;;
19944;SDS011;10134;50.952;6.930;2022-12-17T13:59:54;24.43;;;12.43;;
19944;SDS011;10134;50.952;6.930;2022-12-17T14:04:52;24.93;;;12.30;;
19944;SDS011;10134;50.952;6.930;2022-12-17T14:07:23;25.23;;;14.30;;
19944;SDS011;10134;50.952;6.930;2022-12-17T14:09:52;25.47;;;13.63;;
19944;SDS011;10134;50.952;6.930;2022-12-17T14:12:22;27.30;;;14.30;;
19944;SDS011;10134;50.952;6.930;2022-12-17T14:14:53;20.03;;;12.10;;
19944;SDS011;10134;50.952;6.930;2022-12-17T14:17:44;23.17;;;13.23;;
19944;SDS011;10134;50.952;6.930;2022-12-17T14:20:21;29.17;;;12.47;;
19944;SDS011;10134;50.952;6.930;2022-12-17T14:22:54;23.47;;;11.67;;
19944;SDS011;10134;50.952;6.930;2022-12-17T14:25:28;27.93;;;14.03;;
19944;SDS011;10134;50.952;6.930;2022-12-17T14:28:19;25.93;;;12.23;;
19944;SDS011;10134;50.952;6.930;2022-12-17T14:31:03;29.37;;;12.60;;
19944;SDS011;10134;50.952;6.930;2022-12-17T14:34:01;24.27;;;12.93;;
19944;SDS011;10134;50.952;6.930;2022-12-17T14:36:34;26.07;;;13.57;;
19944;SDS011;10134;50.952;6.930;2022-12-17T14:39:13;22.77;;;12.47;;
19944;SDS011;10134;50.952;6.930;2022-12-17T14:41:45;28.90;;;14.47;;
19944;SDS011;10134;50.952;6.930;2022-12-17T14:44:31;24.30;;;13.20;;
19944;SDS011;10134;50.952;6.930;2022-12-17T14:50:22;30.43;;;14.57;;
19944;SDS011;10134;50.952;6.930;2022-12-17T14:52:52;25.13;;;13.43;;
19944;SDS011;10134;50.952;6.930;2022-12-17T14:57:51;23.67;;;13.37;;
19944;SDS011;10134;50.952;6.930;2022-12-17T15:00:21;26.63;;;13.03;;
19944;SDS011;10134;50.952;6.930;2022-12-17T15:02:51;23.80;;;12.83;;
19944;SDS011;10134;50.952;6.930;2022-12-17T15:05:21;27.77;;;13.23;;
19944;SDS011;10134;50.952;6.930;2022-12-17T15:07:48;25.37;;;13.80;;
19944;SDS011;10134;50.952;6.930;2022-12-17T15:10:18;26.50;;;13.17;;
19944;SDS011;10134;50.952;6.930;2022-12-17T15:12:47;24.57;;;13.53;;
19944;SDS011;10134;50.952;6.930;2022-12-17T15:15:17;27.20;;;13.20;;
19944;SDS011;10134;50.952;6.930;2022-12-17T15:17:46;24.23;;;12.83;;
19944;SDS011;10134;50.952;6.930;2022-12-17T15:20:17;29.33;;;15.13;;
19944;SDS011;10134;50.952;6.930;2022-12-17T15:22:46;22.23;;;12.30;;
19944;SDS011;10134;50.952;6.930;2022-12-17T15:25:17;26.63;;;14.10;;
19944;SDS011;10134;50.952;6.930;2022-12-17T15:27:45;23.33;;;13.20;;
19944;SDS011;10134;50.952;6.930;2022-12-17T15:30:13;21.57;;;11.97;;
19944;SDS011;10134;50.952;6.930;2022-12-17T15:32:43;27.87;;;13.80;;
19944;SDS011;10134;50.952;6.930;2022-12-17T15:35:12;25.23;;;13.17;;
19944;SDS011;10134;50.952;6.930;2022-12-17T15:37:39;31.97;;;14.13;;
19944;SDS011;10134;50.952;6.930;2022-12-17T15:40:07;24.47;;;13.40;;
19944;SDS011;10134;50.952;6.930;2022-12-17T15:42:37;25.80;;;13.73;;
19944;SDS011;10134;50.952;6.930;2022-12-17T15:45:32;26.13;;;13.97;;
19944;SDS011;10134;50.952;6.930;2022-12-17T15:47:59;22.37;;;13.13;;
19944;SDS011;10134;50.952;6.930;2022-12-17T15:50:27;26.93;;;14.40;;
19944;SDS011;10134;50.952;6.930;2022-12-17T15:52:54;25.40;;;13.57;;
19944;SDS011;10134;50.952;6.930;2022-12-17T15:55:22;23.50;;;13.07;;
19944;SDS011;10134;50.952;6.930;2022-12-17T15:57:49;25.57;;;13.53;;
19944;SDS011;10134;50.952;6.930;2022-12-17T16:00:16;30.10;;;15.47;;
19944;SDS011;10134;50.952;6.930;2022-12-17T16:02:44;30.17;;;14.23;;
19944;SDS011;10134;50.952;6.930;2022-12-17T16:05:13;24.03;;;12.23;;
19944;SDS011;10134;50.952;6.930;2022-12-17T16:07:40;30.73;;;14.93;;
19944;SDS011;10134;50.952;6.930;2022-12-17T16:10:09;23.67;;;13.43;;
19944;SDS011;10134;50.952;6.930;2022-12-17T16:12:38;21.53;;;12.37;;
19944;SDS011;10134;50.952;6.930;2022-12-17T16:15:06;29.83;;;14.07;;
19944;SDS011;10134;50.952;6.930;2022-12-17T16:17:34;25.13;;;12.63;;
19944;SDS011;10134;50.952;6.930;2022-12-17T16:20:02;29.40;;;13.10;;
19944;SDS011;10134;50.952;6.930;2022-12-17T16:22:31;26.40;;;14.03;;
19944;SDS011;10134;50.952;6.930;2022-12-17T16:24:58;26.70;;;12.60;;
19944;SDS011;10134;50.952;6.930;2022-12-17T16:27:26;25.67;;;13.57;;
19944;SDS011;10134;50.952;6.930;2022-12-17T16:29:54;24.03;;;13.43;;
19944;SDS011;10134;50.952;6.930;2022-12-17T16:32:21;27.90;;;14.87;;
19944;SDS011;10134;50.952;6.930;2022-12-17T16:34:48;25.43;;;13.50;;
19944;SDS011;10134;50.952;6.930;2022-12-17T16:37:15;26.33;;;13.77;;
19944;SDS011;10134;50.952;6.930;2022-12-17T16:39:43;25.67;;;13.70;;
19944;SDS011;10134;50.952;6.930;2022-12-17T16:42:10;28.97;;;12.77;;
19944;SDS011;10134;50.952;6.930;2022-12-17T16:44:37;24.07;;;13.43;;
19944;SDS011;10134;50.952;6.930;2022-12-17T16:47:05;29.17;;;13.57;;
19944;SDS011;10134;50.952;6.930;2022-12-17T16:49:32;26.53;;;12.30;;
19944;SDS011;10134;50.952;6.930;2022-12-17T16:51:59;25.20;;;13.07;;
19944;SDS011;10134;50.952;6.930;2022-12-17T16:54:29;24.57;;;13.03;;
19944;SDS011;10134;50.952;6.930;2022-12-17T16:56:58;27.67;;;13.17;;
19944;SDS011;10134;50.952;6.930;2022-12-17T16:59:27;24.77;;;13.10;;
19944;SDS011;10134;50.952;6.930;2022-12-17T17:01:55;29.90;;;12.20;;
19944;SDS011;10134;50.952;6.930;2022-12-17T17:04:23;24.20;;;13.30;;
19944;SDS011;10134;50.952;6.930;2022-12-17T17:06:52;26.20;;;11.90;;
19944;SDS011;10134;50.952;6.930;2022-12-17T17:09:23;22.23;;;12.67;;
19944;SDS011;10134;50.952;6.930;2022-12-17T17:11:53;24.37;;;12.83;;
19944;SDS011;10134;50.952;6.930;2022-12-17T17:14:22;25.30;;;12.20;;
19944;SDS011;10134;50.952;6.930;2022-12-17T17:16:50;22.17;;;12.83;;
19944;SDS011;10134;50.952;6.930;2022-12-17T17:19:18;25.60;;;12.47;;
19944;SDS011;10134;50.952;6.930;2022-12-17T17:21:47;23.93;;;12.70;;
19944;SDS011;10134;50.952;6.930;2022-12-17T17:24:17;23.93;;;11.93;;
19944;SDS011;10134;50.952;6.930;2022-12-17T17:26:51;23.73;;;13.03;;
19944;SDS011;10134;50.952;6.930;2022-12-17T17:29:19;26.77;;;13.23;;
19944;SDS011;10134;50.952;6.930;2022-12-17T17:31:47;23.60;;;11.97;;
19944;SDS011;10134;50.952;6.930;2022-12-17T17:34:34;28.63;;;13.00;;